Time;durP1;ratioP1;P1;durP2;ratioP2;P2;SDS_P1;SDS_P2;PMS_P1;PMS_P2;Temp;Humidity;BMP_temperature;BMP_pressure;BME280_temperature;BME280_humidity;BME280_pressure;Samples;Min_cycle;Max_cycle;Signal;HPM_P1;HPM_P2
2022/06/05 00:02:22;;;;;;;11.67;8.87;;;24.20;41.60;;;;;;5050219;28;20209;-71
2022/06/05 00:04:53;;;;;;;15.27;9.40;;;24.00;42.40;;;;;;5042804;28;20179;-68
2022/06/05 00:07:34;;;;;;;14.83;9.23;;;23.80;42.80;;;;;;5042594;28;20432;-68
2022/06/05 00:10:13;;;;;;;17.90;11.50;;;23.40;44.80;;;;;;5049664;28;20433;-69
2022/06/05 00:12:58;;;;;;;17.47;12.10;;;23.30;45.50;;;;;;5046730;28;20484;-70
2022/06/05 00:15:23;;;;;;;14.90;11.23;;;23.30;46.60;;;;;;5064194;23;20502;-72
2022/06/05 00:17:49;;;;;;;15.80;12.57;;;23.40;46.80;;;;;;5045961;28;20425;-72
2022/06/05 00:20:15;;;;;;;17.87;12.53;;;23.30;45.80;;;;;;5035916;28;20234;-72
2022/06/05 00:22:41;;;;;;;19.43;12.80;;;23.10;47.40;;;;;;5043299;28;20168;-73
2022/06/05 00:25:08;;;;;;;19.63;11.60;;;23.20;47.70;;;;;;5050307;28;20450;-73
2022/06/05 00:27:49;;;;;;;16.00;12.20;;;23.70;45.10;;;;;;5032608;28;20195;-72
2022/06/05 00:30:29;;;;;;;14.57;12.30;;;23.90;45.10;;;;;;5026606;28;20421;-71
2022/06/05 00:33:04;;;;;;;16.10;11.10;;;23.60;45.90;;;;;;5034686;28;20875;-72
2022/06/05 00:35:34;;;;;;;18.10;11.80;;;23.70;45.10;;;;;;5027491;28;20448;-73
2022/06/05 00:38:12;;;;;;;13.80;11.37;;;23.80;44.10;;;;;;5033047;28;20830;-71
2022/06/05 00:40:52;;;;;;;18.00;12.30;;;23.70;44.20;;;;;;5027742;28;20451;-73
2022/06/05 00:43:21;;;;;;;13.60;11.70;;;23.30;45.80;;;;;;5033748;28;20902;-73
2022/06/05 00:45:47;;;;;;;14.43;11.30;;;23.30;46.50;;;;;;5034267;28;20878;-72
2022/06/05 00:48:13;;;;;;;15.57;12.40;;;23.40;46.10;;;;;;5030580;28;20511;-73
2022/06/05 00:50:41;;;;;;;15.90;12.13;;;22.70;48.70;;;;;;5030363;28;20185;-73
2022/06/05 00:53:08;;;;;;;26.03;13.30;;;23.00;47.30;;;;;;5031531;28;20431;-71
2022/06/05 00:55:44;;;;;;;19.70;12.60;;;23.00;46.90;;;;;;5033483;28;20806;-73
2022/06/05 00:58:10;;;;;;;16.40;11.27;;;23.10;47.50;;;;;;5033230;28;20988;-72
2022/06/05 01:00:38;;;;;;;14.30;11.90;;;23.20;48.10;;;;;;5031522;28;20807;-73
2022/06/05 01:03:09;;;;;;;15.20;11.50;;;23.10;48.00;;;;;;5033825;28;20794;-74
2022/06/05 01:05:35;;;;;;;17.37;11.77;;;23.30;46.90;;;;;;5034154;28;20475;-73
2022/06/05 01:08:01;;;;;;;22.50;13.60;;;23.50;46.10;;;;;;5032318;28;20476;-72
2022/06/05 01:10:35;;;;;;;16.47;13.50;;;23.20;46.90;;;;;;5031130;28;20523;-73
2022/06/05 01:13:09;;;;;;;18.87;13.03;;;23.30;47.40;;;;;;5025745;28;20427;-73
2022/06/05 01:16:01;;;;;;;21.60;14.93;;;22.80;49.10;;;;;;5033590;28;20675;-73
2022/06/05 01:18:27;;;;;;;21.40;15.63;;;22.80;49.00;;;;;;5026968;28;20443;-73
2022/06/05 01:20:58;;;;;;;22.03;16.30;;;23.00;47.90;;;;;;5028332;28;20500;-74
2022/06/05 01:24:09;;;;;;;19.47;14.23;;;22.40;50.50;;;;;;5028727;28;20174;-73
2022/06/05 01:26:54;;;;;;;18.10;14.13;;;22.30;51.40;;;;;;5021744;28;20813;-73
2022/06/05 01:29:32;;;;;;;20.87;14.57;;;21.70;55.40;;;;;;5032465;28;20453;-72
2022/06/05 01:32:09;;;;;;;19.27;14.90;;;21.70;56.50;;;;;;5025444;28;20415;-72
2022/06/05 01:34:54;;;;;;;23.93;14.27;;;21.60;56.60;;;;;;5025694;28;20654;-74
2022/06/05 01:37:54;;;;;;;21.83;14.17;;;22.10;55.30;;;;;;5032715;28;20428;-73
2022/06/05 01:40:25;;;;;;;19.40;14.07;;;22.50;53.40;;;;;;5032321;28;20462;-73
2022/06/05 01:42:58;;;;;;;20.63;15.50;;;22.90;51.40;;;;;;5033409;28;20474;-72
2022/06/05 01:45:46;;;;;;;21.20;15.53;;;22.90;51.10;;;;;;5032953;28;20505;-73
2022/06/05 01:48:21;;;;;;;20.87;16.03;;;23.00;50.40;;;;;;5028985;28;20470;-71
2022/06/05 01:51:10;;;;;;;23.17;16.37;;;22.40;52.20;;;;;;5044214;28;20436;-73
2022/06/05 01:53:42;;;;;;;24.67;15.60;;;21.90;55.60;;;;;;5024968;28;20430;-72
2022/06/05 01:56:27;;;;;;;18.83;16.03;;;22.30;54.40;;;;;;5033366;28;20502;-73
2022/06/05 01:59:03;;;;;;;18.53;14.90;;;22.70;52.70;;;;;;5029392;28;20443;-72
2022/06/05 02:01:36;;;;;;;24.53;15.57;;;22.60;52.70;;;;;;5031646;28;20469;-72
2022/06/05 02:04:15;;;;;;;19.53;13.97;;;22.30;52.60;;;;;;5032667;28;20502;-73
2022/06/05 02:06:53;;;;;;;23.33;14.60;;;21.70;56.70;;;;;;5024086;28;20497;-73
2022/06/05 02:09:25;;;;;;;20.17;14.97;;;21.80;56.60;;;;;;5033219;28;20479;-72
2022/06/05 02:11:51;;;;;;;17.57;14.07;;;22.10;55.20;;;;;;5031456;28;20422;-72
2022/06/05 02:14:17;;;;;;;19.30;14.10;;;22.20;55.40;;;;;;5030064;28;20432;-73
2022/06/05 02:16:43;;;;;;;18.80;14.60;;;22.60;53.70;;;;;;5030968;28;20202;-73
2022/06/05 02:19:17;;;;;;;19.90;13.40;;;22.90;51.60;;;;;;5032519;28;20233;-71
2022/06/05 02:21:43;;;;;;;21.37;14.03;;;22.80;51.10;;;;;;5026180;28;20449;-73
2022/06/05 02:24:11;;;;;;;25.13;15.53;;;22.90;51.20;;;;;;5025867;28;20419;-73
2022/06/05 02:26:37;;;;;;;24.13;14.13;;;23.00;50.20;;;;;;5032829;28;20434;-73
2022/06/05 02:29:13;;;;;;;21.07;14.33;;;23.10;49.60;;;;;;5030855;28;20986;-72
2022/06/05 02:31:46;;;;;;;19.60;14.63;;;23.10;50.00;;;;;;5027101;28;20431;-73
2022/06/05 02:34:18;;;;;;;21.67;14.30;;;23.30;49.00;;;;;;5024958;28;20922;-72
2022/06/05 02:37:18;;;;;;;19.50;14.50;;;23.20;48.80;;;;;;5032672;28;20443;-72
2022/06/05 02:39:49;;;;;;;20.10;14.37;;;23.00;49.10;;;;;;5027900;28;20447;-72
2022/06/05 02:42:23;;;;;;;17.70;14.40;;;22.80;50.90;;;;;;5030810;28;20471;-72
2022/06/05 02:45:12;;;;;;;20.43;14.47;;;23.00;50.70;;;;;;5032398;28;20420;-72
2022/06/05 02:47:43;;;;;;;21.53;14.47;;;23.00;50.10;;;;;;5026928;28;20420;-72
2022/06/05 02:50:41;;;;;;;19.07;14.30;;;23.10;49.90;;;;;;5032430;28;20414;-73
2022/06/05 02:53:09;;;;;;;17.33;13.50;;;23.20;49.20;;;;;;5015374;28;20427;-73
2022/06/05 02:55:35;;;;;;;17.50;14.20;;;23.20;49.30;;;;;;5031975;28;20449;-73
2022/06/05 02:58:01;;;;;;;19.97;14.30;;;23.20;49.20;;;;;;5032159;28;20511;-73
2022/06/05 03:00:28;;;;;;;18.83;14.37;;;23.20;49.60;;;;;;5029759;28;21078;-72
2022/06/05 03:05:39;;;;;;;26.03;15.10;;;22.40;52.30;;;;;;5031576;28;20469;-72
2022/06/05 03:08:07;;;;;;;23.17;13.50;;;22.30;53.20;;;;;;5032088;28;20419;-73
2022/06/05 03:10:33;;;;;;;24.50;14.77;;;22.70;52.30;;;;;;5031600;28;20428;-72
2022/06/05 03:13:01;;;;;;;17.17;14.77;;;22.50;52.20;;;;;;5030378;28;20464;-72
2022/06/05 03:15:28;;;;;;;22.83;15.00;;;22.40;53.10;;;;;;5027191;28;20455;-73
2022/06/05 03:17:54;;;;;;;21.70;15.20;;;22.80;51.70;;;;;;5025080;28;20444;-73
2022/06/05 03:20:19;;;;;;;21.93;15.40;;;22.90;51.60;;;;;;5031539;28;20549;-73
2022/06/05 03:22:45;;;;;;;22.40;16.03;;;22.90;50.90;;;;;;5030651;28;20246;-73
2022/06/05 03:25:16;;;;;;;21.63;15.30;;;23.10;49.70;;;;;;5023371;28;20191;-73
2022/06/05 03:27:42;;;;;;;22.13;15.43;;;23.10;49.40;;;;;;5028683;28;20446;-72
2022/06/05 03:30:08;;;;;;;22.07;16.23;;;22.60;52.00;;;;;;5031142;28;20450;-73
2022/06/05 03:32:34;;;;;;;23.10;16.40;;;22.70;52.00;;;;;;5031462;28;20207;-72
2022/06/05 03:34:59;;;;;;;23.93;16.20;;;22.90;50.40;;;;;;5022769;28;20474;-71
2022/06/05 03:37:25;;;;;;;23.77;17.40;;;22.90;50.90;;;;;;5031556;28;20666;-72
2022/06/05 03:39:51;;;;;;;20.93;17.00;;;23.10;50.20;;;;;;5031623;28;20688;-73
2022/06/05 03:42:18;;;;;;;20.90;16.17;;;22.90;50.00;;;;;;5030417;28;20206;-73
2022/06/05 03:44:43;;;;;;;23.53;16.20;;;22.20;53.60;;;;;;5029990;28;20492;-73
2022/06/05 03:47:12;;;;;;;29.33;17.37;;;22.10;56.30;;;;;;5028888;28;20176;-74
2022/06/05 03:49:38;;;;;;;22.80;16.87;;;22.30;54.50;;;;;;5031164;28;20211;-73
2022/06/05 03:52:05;;;;;;;21.90;17.00;;;21.70;57.80;;;;;;5030897;28;20972;-72
2022/06/05 03:54:33;;;;;;;20.60;16.07;;;21.80;57.90;;;;;;5029274;28;20268;-74
2022/06/05 03:56:59;;;;;;;23.07;15.57;;;22.00;56.10;;;;;;5028913;28;20458;-73
2022/06/05 03:59:25;;;;;;;24.13;16.10;;;22.10;55.50;;;;;;5026234;28;20422;-74
2022/06/05 04:01:50;;;;;;;21.90;16.70;;;22.20;55.40;;;;;;5029974;28;20465;-73
2022/06/05 04:04:16;;;;;;;24.67;16.93;;;22.10;55.40;;;;;;5030055;28;20187;-73
2022/06/05 04:06:42;;;;;;;21.63;16.27;;;22.00;56.70;;;;;;5029755;28;20689;-72
2022/06/05 04:09:09;;;;;;;20.90;16.37;;;21.50;59.30;;;;;;5027487;28;20257;-73
2022/06/05 04:11:37;;;;;;;22.20;16.70;;;21.50;60.90;;;;;;5028355;28;20191;-73
2022/06/05 04:14:03;;;;;;;23.93;16.03;;;21.80;59.60;;;;;;5029986;28;20445;-72
2022/06/05 04:16:31;;;;;;;19.93;16.00;;;22.30;56.50;;;;;;5029756;28;20473;-74
2022/06/05 04:18:58;;;;;;;22.50;16.43;;;22.70;54.80;;;;;;5026283;28;20525;-74
2022/06/05 04:21:27;;;;;;;20.90;16.17;;;22.80;53.00;;;;;;5030467;28;20500;-72
2022/06/05 04:23:53;;;;;;;20.10;15.70;;;23.50;53.40;;;;;;5027597;28;20437;-69
2022/06/05 04:26:26;;;;;;;24.70;17.27;;;22.90;52.10;;;;;;5021506;28;20474;-73
2022/06/05 04:28:54;;;;;;;21.53;16.37;;;22.90;51.20;;;;;;5029231;28;20422;-74
2022/06/05 04:31:26;;;;;;;20.10;15.70;;;23.10;51.30;;;;;;5030373;28;20432;-73
2022/06/05 04:33:54;;;;;;;29.23;16.43;;;23.10;52.00;;;;;;5025210;28;20447;-73
2022/06/05 04:36:19;;;;;;;25.03;16.00;;;23.20;50.40;;;;;;5030278;28;20520;-74
2022/06/05 04:38:46;;;;;;;19.83;16.03;;;23.40;49.30;;;;;;5029682;28;21041;-73
2022/06/05 04:41:12;;;;;;;20.33;16.30;;;23.30;49.00;;;;;;5028724;28;20218;-73
2022/06/05 04:43:38;;;;;;;19.77;15.90;;;23.10;49.60;;;;;;5028096;28;20438;-73
2022/06/05 04:46:05;;;;;;;19.60;15.63;;;21.70;56.90;;;;;;5029987;28;20453;-73
2022/06/05 04:48:31;;;;;;;20.80;15.80;;;21.10;63.30;;;;;;5031048;28;20247;-73
2022/06/05 04:50:57;;;;;;;21.87;16.13;;;21.00;65.30;;;;;;5028245;28;20442;-72
2022/06/05 04:53:23;;;;;;;27.20;18.77;;;20.40;70.60;;;;;;5022683;28;20777;-73
2022/06/05 04:55:49;;;;;;;22.73;15.70;;;19.80;77.20;;;;;;5029958;28;20820;-71
2022/06/05 04:58:14;;;;;;;21.00;17.13;;;20.00;76.80;;;;;;5027350;28;20202;-74
2022/06/05 05:00:40;;;;;;;20.70;15.93;;;20.20;73.80;;;;;;5029614;28;20216;-72
2022/06/05 05:03:06;;;;;;;20.83;15.50;;;20.50;70.40;;;;;;5028058;28;20190;-72
2022/06/05 05:05:34;;;;;;;20.17;15.27;;;20.50;70.40;;;;;;5029020;28;20451;-73
2022/06/05 05:08:00;;;;;;;22.40;15.40;;;21.00;65.50;;;;;;5033867;28;20183;-73
2022/06/05 05:10:25;;;;;;;22.00;15.80;;;21.40;63.50;;;;;;5032696;28;20471;-74
2022/06/05 05:12:52;;;;;;;19.60;15.07;;;21.00;65.50;;;;;;5030210;28;20179;-72
2022/06/05 05:15:18;;;;;;;27.40;17.83;;;21.30;64.30;;;;;;5032370;28;20699;-73
2022/06/05 05:17:44;;;;;;;33.40;20.20;;;20.50;77.90;;;;;;5033547;28;20437;-72
2022/06/05 05:20:10;;;;;;;30.17;21.20;;;;;;;;;;5031612;28;20471;-73
2022/06/05 05:22:39;;;;;;;35.17;24.23;;;18.90;97.90;;;;;;5031655;28;20433;-73
2022/06/05 05:25:11;;;;;;;36.10;22.20;;;18.70;99.80;;;;;;5024350;28;20444;-73
2022/06/05 05:27:37;;;;;;;38.30;26.30;;;18.70;99.90;;;;;;5028369;28;20422;-73
2022/06/05 05:30:05;;;;;;;42.83;26.30;;;19.30;97.50;;;;;;5033637;28;20950;-74
2022/06/05 05:32:31;;;;;;;38.93;25.17;;;19.90;95.00;;;;;;5033597;28;20980;-74
2022/06/05 05:34:57;;;;;;;65.90;27.10;;;19.50;96.30;;;;;;5032760;28;20459;-75
2022/06/05 05:37:22;;;;;;;48.00;31.33;;;19.40;96.60;;;;;;5018182;28;20189;-74
2022/06/05 05:42:32;;;;;;;40.67;28.10;;;19.70;95.90;;;;;;5033511;28;20192;-74
2022/06/05 05:44:59;;;;;;;47.03;30.47;;;20.20;94.00;;;;;;5032521;28;20436;-73
2022/06/05 05:47:27;;;;;;;65.97;22.30;;;20.20;92.70;;;;;;5032246;28;20191;-74
2022/06/05 05:49:55;;;;;;;24.10;15.37;;;19.40;97.00;;;;;;5033649;28;20443;-75
2022/06/05 05:52:22;;;;;;;27.43;14.63;;;18.50;99.90;;;;;;5032916;28;20446;-75
2022/06/05 05:54:48;;;;;;;71.83;17.10;;;18.20;99.90;;;;;;5033314;28;20507;-75
2022/06/05 05:57:13;;;;;;;157.83;20.67;;;18.20;99.90;;;;;;5031398;28;20530;-76
2022/06/05 05:59:39;;;;;;;25.83;15.17;;;18.20;99.90;;;;;;5026138;28;20611;-75
2022/06/05 06:02:11;;;;;;;70.67;18.37;;;18.50;99.90;;;;;;5033109;28;20185;-74
2022/06/05 06:04:37;;;;;;;22.17;11.10;;;19.70;98.80;;;;;;5025173;28;20187;-75
2022/06/05 06:07:03;;;;;;;30.43;16.83;;;19.80;99.00;;;;;;5029088;28;20458;-75
2022/06/05 06:09:29;;;;;;;21.73;14.80;;;20.10;97.40;;;;;;5032582;28;20429;-75
2022/06/05 06:11:54;;;;;;;12.27;7.00;;;19.70;94.60;;;;;;5031674;28;20212;-74
2022/06/05 06:14:20;;;;;;;14.50;7.30;;;19.70;94.40;;;;;;5028620;28;20533;-74
2022/06/05 06:16:46;;;;;;;13.47;8.53;;;19.80;94.90;;;;;;5032318;28;20215;-74
2022/06/05 06:19:11;;;;;;;13.10;8.00;;;19.90;95.20;;;;;;5027321;28;20182;-74
2022/06/05 06:21:37;;;;;;;11.50;8.27;;;20.10;94.00;;;;;;5028206;28;20245;-73
2022/06/05 06:24:03;;;;;;;17.43;7.10;;;20.00;94.00;;;;;;5031861;28;20195;-74
2022/06/05 06:26:28;;;;;;;13.40;6.53;;;20.00;94.20;;;;;;5032456;28;20601;-74
2022/06/05 06:28:54;;;;;;;10.43;6.50;;;20.20;92.90;;;;;;5030807;28;20200;-74
2022/06/05 06:31:20;;;;;;;11.60;7.53;;;20.30;92.70;;;;;;5025654;28;20189;-74
2022/06/05 06:33:48;;;;;;;25.03;6.83;;;20.40;91.60;;;;;;5030023;28;20279;-74
2022/06/05 06:36:15;;;;;;;10.80;6.07;;;20.10;92.80;;;;;;5020697;28;20201;-74
2022/06/05 06:38:40;;;;;;;49.80;5.47;;;19.40;95.20;;;;;;5029535;28;20426;-73
2022/06/05 06:41:11;;;;;;;11.43;5.30;;;19.40;95.60;;;;;;5030055;28;20949;-74
2022/06/05 06:43:37;;;;;;;6.70;4.63;;;19.50;95.10;;;;;;5025442;28;20291;-74
2022/06/05 06:46:04;;;;;;;9.00;4.60;;;19.60;93.20;;;;;;5025737;28;20446;-74
2022/06/05 06:48:30;;;;;;;8.73;4.10;;;19.90;92.70;;;;;;5059109;22;20493;-71
2022/06/05 06:50:58;;;;;;;8.00;3.97;;;20.10;90.00;;;;;;5044828;28;20524;-72
2022/06/05 06:53:25;;;;;;;9.10;4.00;;;19.90;87.60;;;;;;5044639;28;20429;-73
2022/06/05 06:55:51;;;;;;;17.13;3.70;;;19.60;91.00;;;;;;5041876;28;20413;-70
2022/06/05 06:58:17;;;;;;;9.00;3.50;;;19.50;91.60;;;;;;5049926;28;20501;-71
2022/06/05 07:00:43;;;;;;;6.63;3.43;;;19.30;91.40;;;;;;5051813;28;20473;-70
2022/06/05 07:03:09;;;;;;;6.53;3.70;;;18.90;90.70;;;;;;5043365;28;20484;-71
2022/06/05 07:05:35;;;;;;;6.30;3.20;;;18.80;93.00;;;;;;5050865;28;20433;-70
2022/06/05 07:08:01;;;;;;;5.00;3.23;;;18.80;93.70;;;;;;5050277;28;20209;-71
2022/06/05 07:10:26;;;;;;;8.30;3.10;;;19.50;91.40;;;;;;5043916;28;20502;-71
2022/06/05 07:12:52;;;;;;;13.40;3.60;;;19.30;90.50;;;;;;5051468;28;20609;-71
2022/06/05 07:15:18;;;;;;;7.73;3.50;;;18.90;93.70;;;;;;5050123;28;20240;-70
2022/06/05 07:17:44;;;;;;;6.57;3.50;;;19.40;92.10;;;;;;5049141;28;20194;-72
2022/06/05 07:20:10;;;;;;;5.37;4.00;;;19.90;89.50;;;;;;5049542;28;20468;-71
2022/06/05 07:22:35;;;;;;;5.70;4.40;;;19.90;89.20;;;;;;5047110;28;20202;-71
2022/06/05 07:25:01;;;;;;;10.60;4.17;;;20.20;90.00;;;;;;5047276;28;20434;-71
2022/06/05 07:27:28;;;;;;;6.70;4.40;;;20.60;87.70;;;;;;5049862;28;20227;-71
2022/06/05 07:29:54;;;;;;;6.40;4.33;;;20.90;85.90;;;;;;5048448;28;20179;-71
2022/06/05 07:32:20;;;;;;;6.13;4.17;;;21.00;82.90;;;;;;5042646;28;20442;-71
2022/06/05 07:34:47;;;;;;;5.73;3.90;;;21.20;82.50;;;;;;5050065;28;20183;-71
2022/06/05 07:37:13;;;;;;;8.70;4.00;;;21.20;82.40;;;;;;5048351;28;20450;-71
2022/06/05 07:39:40;;;;;;;5.80;3.70;;;21.40;82.20;;;;;;5049115;28;20414;-71
2022/06/05 07:42:06;;;;;;;6.70;4.07;;;21.50;81.80;;;;;;5042854;28;20951;-71
2022/06/05 07:44:33;;;;;;;5.93;4.03;;;21.60;81.10;;;;;;5043117;28;20420;-71
2022/06/05 07:47:02;;;;;;;7.30;3.87;;;21.70;81.50;;;;;;5043826;28;20447;-72
2022/06/05 07:49:28;;;;;;;5.63;3.40;;;21.80;81.60;;;;;;5050169;28;20434;-71
2022/06/05 07:54:37;;;;;;;6.50;3.33;;;21.60;83.90;;;;;;5050389;28;21715;-71
2022/06/05 07:57:08;;;;;;;5.63;3.43;;;21.60;84.40;;;;;;5049288;28;20464;-71
2022/06/05 07:59:36;;;;;;;8.33;3.97;;;22.10;84.50;;;;;;5041904;28;20181;-71
2022/06/05 08:02:06;;;;;;;7.57;3.10;;;22.30;79.30;;;;;;5042161;28;20442;-71
2022/06/05 08:04:33;;;;;;;6.20;3.37;;;22.50;79.50;;;;;;5044054;28;20441;-71
2022/06/05 08:07:00;;;;;;;6.50;3.40;;;22.80;79.10;;;;;;5045332;28;20777;-71
2022/06/05 08:09:27;;;;;;;6.70;3.30;;;22.90;75.80;;;;;;5047291;28;20784;-71
2022/06/05 08:11:53;;;;;;;5.57;3.63;;;23.00;77.60;;;;;;5047910;28;20931;-70
2022/06/05 08:14:18;;;;;;;5.03;2.93;;;23.00;79.60;;;;;;5048218;28;20433;-72
2022/06/05 08:16:46;;;;;;;7.10;3.00;;;23.20;78.00;;;;;;5042350;28;20195;-74
2022/06/05 08:19:14;;;;;;;8.73;3.17;;;23.20;74.00;;;;;;5045773;28;20190;-71
2022/06/05 08:21:40;;;;;;;9.60;2.93;;;22.90;78.90;;;;;;5040054;28;20972;-71
2022/06/05 08:24:06;;;;;;;7.23;3.13;;;22.90;78.10;;;;;;5044996;28;20934;-71
2022/06/05 08:26:33;;;;;;;8.07;3.20;;;23.10;77.90;;;;;;5045724;28;20439;-72
2022/06/05 08:28:59;;;;;;;7.33;2.77;;;23.30;73.60;;;;;;5046061;28;20948;-72
2022/06/05 08:31:24;;;;;;;10.90;3.47;;;23.40;73.80;;;;;;5047708;28;20460;-71
2022/06/05 08:33:50;;;;;;;4.43;2.70;;;23.40;72.70;;;;;;5045847;28;20196;-71
2022/06/05 08:36:16;;;;;;;4.20;2.77;;;23.60;67.40;;;;;;5046441;28;20182;-71
2022/06/05 08:41:29;;;;;;;5.00;2.83;;;23.50;61.40;;;;;;5049221;28;20217;-72
2022/06/05 08:44:05;;;;;;;5.43;2.77;;;22.80;64.80;;;;;;5049728;28;20894;-71
2022/06/05 08:47:01;;;;;;;3.37;2.30;;;22.60;67.80;;;;;;5048865;28;20984;-71
2022/06/05 08:49:32;;;;;;;5.13;2.70;;;23.00;71.30;;;;;;5010200;28;20939;-74
2022/06/05 08:52:18;;;;;;;11.43;2.90;;;23.50;66.00;;;;;;5049557;28;20423;-72
2022/06/05 08:55:15;;;;;;;7.10;3.30;;;23.80;64.40;;;;;;5045976;28;20926;-72
2022/06/05 08:57:51;;;;;;;7.80;3.10;;;24.00;64.70;;;;;;5048600;28;21068;-72
2022/06/05 09:00:20;;;;;;;8.80;3.20;;;24.20;67.30;;;;;;5052226;28;20456;-71
2022/06/05 09:02:54;;;;;;;10.07;3.50;;;24.30;67.30;;;;;;5050251;28;20445;-72
2022/06/05 09:05:36;;;;;;;6.83;3.30;;;24.10;62.60;;;;;;5046448;28;20430;-71
2022/06/05 09:08:09;;;;;;;7.90;3.80;;;24.20;58.70;;;;;;5046154;28;20466;-71
2022/06/05 09:10:45;;;;;;;10.27;3.60;;;24.10;64.10;;;;;;5045588;28;20481;-71
2022/06/05 09:13:42;;;;;;;11.30;4.50;;;24.40;67.50;;;;;;5047286;28;20434;-71
2022/06/05 09:16:13;;;;;;;8.47;4.17;;;24.60;69.30;;;;;;5051609;28;20418;-71
2022/06/05 09:18:44;;;;;;;12.50;4.50;;;25.20;66.10;;;;;;5053053;28;20426;-71
2022/06/05 09:21:31;;;;;;;8.03;3.67;;;25.50;65.30;;;;;;5048565;28;21022;-70
2022/06/05 09:24:06;;;;;;;6.27;4.30;;;25.50;61.90;;;;;;5052789;28;20417;-72
2022/06/05 09:26:54;;;;;;;14.30;4.90;;;25.10;58.30;;;;;;5046655;28;20483;-71
2022/06/05 09:29:43;;;;;;;14.50;4.97;;;25.20;58.20;;;;;;5052211;28;20466;-73
2022/06/05 09:32:33;;;;;;;9.67;5.20;;;25.10;59.60;;;;;;5050357;28;20929;-73
2022/06/05 09:35:11;;;;;;;8.03;5.20;;;25.10;57.70;;;;;;5046001;28;20421;-74
2022/06/05 09:38:06;;;;;;;11.43;5.93;;;24.40;61.90;;;;;;5046924;28;20951;-69
2022/06/05 09:40:37;;;;;;;18.10;6.73;;;24.30;65.90;;;;;;5047809;28;20494;-71
2022/06/05 09:43:27;;;;;;;14.20;6.30;;;24.40;63.30;;;;;;5049694;28;20509;-69
2022/06/05 09:46:20;;;;;;;16.47;6.70;;;24.60;64.20;;;;;;5050763;28;20430;-69
2022/06/05 09:49:24;;;;;;;12.67;6.60;;;24.30;63.40;;;;;;5050887;28;20477;-69
2022/06/05 09:51:50;;;;;;;16.63;6.60;;;24.10;63.30;;;;;;4968902;28;20425;-72
2022/06/05 09:54:31;;;;;;;13.20;7.20;;;24.20;64.80;;;;;;4954125;28;20437;-69
2022/06/05 10:00:08;;;;;;;10.87;6.93;;;24.50;60.60;;;;;;4968937;28;20901;-69
2022/06/05 10:02:35;;;;;;;11.50;6.70;;;23.90;63.70;;;;;;4970151;28;20563;-69
2022/06/05 10:05:10;;;;;;;13.93;6.63;;;24.20;59.30;;;;;;4971072;28;20426;-71
2022/06/05 10:07:47;;;;;;;15.43;6.83;;;23.90;61.90;;;;;;4971094;28;20441;-69
2022/06/05 10:10:33;;;;;;;13.47;6.67;;;23.90;58.50;;;;;;4966329;28;20975;-69
2022/06/05 10:13:17;;;;;;;11.30;6.77;;;23.90;64.20;;;;;;4970687;28;20850;-70
2022/06/05 10:16:06;;;;;;;13.93;6.73;;;24.00;58.80;;;;;;4969910;28;20472;-72
2022/06/05 10:18:52;;;;;;;11.67;7.47;;;23.80;61.40;;;;;;4959381;28;20556;-69
2022/06/05 10:21:21;;;;;;;14.70;8.10;;;23.60;64.90;;;;;;4968775;28;20477;-69
2022/06/05 10:23:51;;;;;;;15.20;8.80;;;23.30;66.10;;;;;;5050527;28;20468;-71
2022/06/05 10:26:37;;;;;;;15.13;7.50;;;23.00;67.60;;;;;;5048734;28;20433;-70
2022/06/05 10:29:33;;;;;;;16.53;8.23;;;22.50;75.40;;;;;;5045573;28;20460;-69
2022/06/05 10:32:05;;;;;;;12.33;8.20;;;22.80;74.00;;;;;;5038292;28;20441;-69
2022/06/05 10:34:35;;;;;;;13.93;7.47;;;23.20;75.10;;;;;;5045059;28;20444;-70
2022/06/05 10:37:16;;;;;;;16.60;9.30;;;23.10;71.90;;;;;;5046396;28;20459;-70
2022/06/05 10:40:06;;;;;;;17.93;8.30;;;23.30;74.50;;;;;;5047040;28;20930;-71
2022/06/05 10:42:34;;;;;;;26.13;8.10;;;23.30;73.90;;;;;;5043314;28;20856;-71
2022/06/05 10:45:16;;;;;;;13.77;7.90;;;23.50;72.90;;;;;;5050894;28;20482;-69
2022/06/05 10:47:59;;;;;;;18.10;8.17;;;23.40;72.10;;;;;;5036513;28;20542;-69
2022/06/05 10:50:50;;;;;;;11.37;7.50;;;23.30;73.90;;;;;;5046858;28;20426;-69
2022/06/05 10:53:37;;;;;;;18.40;7.63;;;23.20;76.10;;;;;;5031511;28;20439;-71
2022/06/05 10:56:27;;;;;;;11.47;6.80;;;23.00;75.90;;;;;;5045998;28;20970;-71
2022/06/05 10:59:21;;;;;;;15.23;7.40;;;22.80;76.60;;;;;;5043490;28;20599;-71
2022/06/05 11:02:19;;;;;;;14.27;7.23;;;22.60;79.20;;;;;;5045263;28;21284;-71
2022/06/05 11:04:49;;;;;;;16.30;6.03;;;22.60;79.30;;;;;;5040658;28;20964;-71
2022/06/05 11:07:52;;;;;;;11.13;7.73;;;22.40;79.70;;;;;;5044942;28;20461;-69
2022/06/05 11:14:07;;;;;;;15.70;7.23;;;22.40;79.00;;;;;;5046901;28;20401;-72
2022/06/05 11:16:48;;;;;;;16.70;7.60;;;22.70;79.70;;;;;;5049837;28;20495;-71
2022/06/05 11:19:24;;;;;;;15.23;7.10;;;23.00;75.90;;;;;;5049989;28;20421;-71
2022/06/05 11:21:52;;;;;;;14.87;7.37;;;23.20;76.10;;;;;;5049840;28;20450;-71
2022/06/05 11:24:24;;;;;;;16.83;6.50;;;23.30;76.50;;;;;;5049337;28;20519;-71
2022/06/05 11:27:10;;;;;;;11.37;6.63;;;23.10;76.00;;;;;;5049921;28;20526;-71
2022/06/05 11:29:53;;;;;;;9.60;5.43;;;23.40;76.30;;;;;;5050315;28;20423;-71
2022/06/05 11:32:33;;;;;;;12.40;5.40;;;23.70;71.10;;;;;;5050322;28;20412;-71
2022/06/05 11:35:08;;;;;;;17.13;6.40;;;23.60;72.20;;;;;;5049670;28;20527;-71
2022/06/05 11:37:53;;;;;;;16.20;5.90;;;23.60;75.10;;;;;;5050061;28;20501;-71
2022/06/05 11:40:46;;;;;;;15.43;5.80;;;24.00;70.60;;;;;;5045888;28;20453;-70
2022/06/05 11:43:23;;;;;;;8.13;5.97;;;24.30;70.50;;;;;;5042096;28;20506;-71
2022/06/05 11:46:11;;;;;;;12.63;5.10;;;24.50;66.00;;;;;;5049363;28;20418;-70
2022/06/05 11:48:51;;;;;;;15.77;5.23;;;24.10;61.70;;;;;;5049948;28;20457;-71
2022/06/05 11:51:26;;;;;;;11.03;5.47;;;24.00;63.80;;;;;;5049669;28;20436;-71
2022/06/05 11:54:13;;;;;;;10.70;5.63;;;23.90;67.90;;;;;;5048634;28;20455;-69
2022/06/05 11:56:49;;;;;;;10.40;5.87;;;23.70;67.80;;;;;;5049039;28;20422;-72
2022/06/05 11:59:55;;;;;;;11.77;6.20;;;23.60;71.40;;;;;;5048673;28;20903;-71
2022/06/05 12:02:42;;;;;;;14.70;6.27;;;23.40;70.00;;;;;;5046237;28;20476;-71
2022/06/05 12:05:24;;;;;;;12.33;6.00;;;23.40;69.60;;;;;;5046175;28;20429;-70
2022/06/05 12:07:51;;;;;;;9.50;6.13;;;23.40;69.30;;;;;;5049890;28;20441;-70
2022/06/05 12:10:26;;;;;;;10.63;5.30;;;23.10;72.80;;;;;;5047908;28;20930;-71
2022/06/05 12:13:10;;;;;;;12.20;5.90;;;23.30;68.90;;;;;;5046750;28;20439;-70
2022/06/05 12:15:55;;;;;;;13.97;5.50;;;23.30;72.40;;;;;;5049168;28;20428;-69
2022/06/05 12:18:28;;;;;;;13.70;5.40;;;23.20;69.60;;;;;;5049304;28;20439;-70
2022/06/05 12:20:56;;;;;;;17.30;5.40;;;23.30;70.00;;;;;;5048708;28;20474;-69
2022/06/05 12:23:39;;;;;;;10.63;5.43;;;23.20;71.80;;;;;;5048793;28;20432;-69
2022/06/05 12:26:29;;;;;;;10.40;4.90;;;23.40;68.30;;;;;;5050912;28;20429;-69
2022/06/05 12:29:19;;;;;;;8.83;4.87;;;23.30;71.50;;;;;;5048685;28;20449;-69
2022/06/05 12:31:54;;;;;;;12.23;5.70;;;23.30;73.10;;;;;;5036356;28;20420;-71
2022/06/05 12:34:26;;;;;;;7.53;5.20;;;23.40;72.40;;;;;;5048277;28;20421;-69
2022/06/05 12:37:39;;;;;;;13.00;5.10;;;23.30;67.40;;;;;;5049394;28;20406;-71
2022/06/05 12:40:16;;;;;;;12.80;4.40;;;23.70;65.00;;;;;;5011187;28;20454;-70
2022/06/05 12:42:55;;;;;;;7.03;4.60;;;23.80;59.40;;;;;;5044266;28;20886;-69
2022/06/05 12:45:32;;;;;;;10.50;4.73;;;24.20;57.30;;;;;;5050426;28;20418;-69
2022/06/05 12:48:21;;;;;;;11.20;4.73;;;24.40;58.30;;;;;;5049216;28;20460;-69
2022/06/05 12:50:47;;;;;;;10.90;4.47;;;24.40;62.30;;;;;;5048665;28;20446;-70
2022/06/05 12:53:41;;;;;;;6.90;3.90;;;23.80;62.70;;;;;;5048357;28;20823;-69
2022/06/05 12:56:30;;;;;;;9.27;3.90;;;23.60;62.60;;;;;;5048448;28;20167;-69
2022/06/05 12:59:17;;;;;;;7.43;3.40;;;23.70;60.50;;;;;;5047358;28;20495;-69
2022/06/05 13:02:09;;;;;;;11.10;4.00;;;24.10;60.70;;;;;;5047944;28;20446;-69
2022/06/05 13:04:43;;;;;;;6.80;3.93;;;24.80;51.20;;;;;;5044551;28;20422;-71
2022/06/05 13:07:22;;;;;;;8.10;3.80;;;25.40;51.50;;;;;;5044836;28;20491;-69
2022/06/05 13:10:00;;;;;;;6.13;2.77;;;25.20;52.80;;;;;;5046835;28;20410;-73
2022/06/05 13:12:28;;;;;;;7.67;3.23;;;25.20;49.20;;;;;;5044922;28;20440;-70
2022/06/05 13:15:15;;;;;;;5.53;3.37;;;25.30;50.80;;;;;;5045667;28;20410;-69
2022/06/05 13:18:01;;;;;;;6.70;3.87;;;25.10;53.60;;;;;;5048611;28;20442;-69
2022/06/05 13:21:03;;;;;;;4.50;3.50;;;24.70;54.90;;;;;;5048030;28;20442;-69
2022/06/05 13:23:44;;;;;;;11.20;3.80;;;24.30;59.50;;;;;;5034934;28;20857;-69
2022/06/05 13:26:15;;;;;;;9.87;3.70;;;24.20;63.20;;;;;;5045250;28;20430;-69